createdAt,value
2023-03-03T00:00:12.963Z,99.90
2023-03-03T00:02:40.040Z,99.90
2023-03-03T00:05:07.330Z,99.90
2023-03-03T00:07:34.877Z,99.90
2023-03-03T00:10:02.018Z,99.90
2023-03-03T00:12:30.409Z,99.90
2023-03-03T00:14:57.190Z,99.90
2023-03-03T00:17:26.326Z,99.90
2023-03-03T00:19:54.720Z,99.90
2023-03-03T00:22:33.646Z,99.90
2023-03-03T00:25:01.455Z,99.90
2023-03-03T00:27:34.646Z,99.90
2023-03-03T00:30:01.500Z,99.90
2023-03-03T00:32:31.916Z,99.90
2023-03-03T00:35:03.717Z,99.90
2023-03-03T00:37:35.153Z,99.90
2023-03-03T00:40:40.525Z,99.90
2023-03-03T00:43:20.695Z,99.90
2023-03-03T00:45:57.804Z,99.90
2023-03-03T00:48:37.015Z,99.90
2023-03-03T00:51:17.291Z,99.90
2023-03-03T00:53:44.528Z,99.90
2023-03-03T00:56:11.393Z,99.90
2023-03-03T00:58:38.105Z,99.90
2023-03-03T01:01:05.141Z,99.90
2023-03-03T01:03:32.786Z,99.90
2023-03-03T01:06:01.095Z,99.90
2023-03-03T01:08:28.337Z,99.90
2023-03-03T01:10:56.563Z,99.90
2023-03-03T01:13:26.330Z,99.90
2023-03-03T01:15:53.542Z,99.90
2023-03-03T01:18:20.944Z,99.90
2023-03-03T01:20:47.832Z,99.90
2023-03-03T01:23:14.622Z,99.90
2023-03-03T01:25:41.725Z,99.90
2023-03-03T01:28:08.718Z,99.90
2023-03-03T01:30:35.537Z,99.90
2023-03-03T01:33:02.393Z,99.90
2023-03-03T01:35:30.108Z,99.90
2023-03-03T01:37:57.124Z,99.90
2023-03-03T01:40:26.294Z,99.90
2023-03-03T01:42:53.481Z,99.90
2023-03-03T01:45:24.750Z,99.90
2023-03-03T01:48:04.777Z,99.90
2023-03-03T01:50:40.271Z,99.90
2023-03-03T01:53:10.369Z,99.90
2023-03-03T01:55:43.447Z,99.90
2023-03-03T01:58:50.891Z,99.90
2023-03-03T02:01:22.290Z,99.90
2023-03-03T02:03:49.389Z,99.90
2023-03-03T02:06:18.204Z,99.90
2023-03-03T02:09:08.061Z,99.90
2023-03-03T02:11:36.368Z,99.90
2023-03-03T02:14:03.752Z,99.90
2023-03-03T02:16:31.033Z,99.90
2023-03-03T02:18:58.886Z,99.90
2023-03-03T02:21:28.135Z,99.90
2023-03-03T02:24:03.555Z,99.90
2023-03-03T02:26:31.616Z,99.90
2023-03-03T02:28:58.396Z,99.90
2023-03-03T02:31:28.289Z,99.90
2023-03-03T02:33:55.380Z,99.90
2023-03-03T02:36:30.294Z,99.90
2023-03-03T02:39:21.479Z,99.90
2023-03-03T02:41:59.490Z,99.90
2023-03-03T02:44:28.425Z,99.90
2023-03-03T02:46:55.585Z,99.90
2023-03-03T02:49:24.184Z,99.90
2023-03-03T02:51:51.907Z,99.90
2023-03-03T02:54:20.044Z,99.90
2023-03-03T02:56:48.742Z,99.90
2023-03-03T02:59:16.140Z,99.90
2023-03-03T03:01:43.163Z,99.90
2023-03-03T03:04:21.285Z,99.90
2023-03-03T03:06:48.291Z,99.90
2023-03-03T03:09:15.685Z,99.90
2023-03-03T03:11:43.267Z,99.90
2023-03-03T03:14:11.240Z,99.90
2023-03-03T03:16:38.181Z,99.90
2023-03-03T03:19:05.766Z,99.90
2023-03-03T03:21:34.206Z,99.90
2023-03-03T03:24:02.235Z,99.90
2023-03-03T03:26:29.551Z,99.90
2023-03-03T03:28:56.459Z,99.90
2023-03-03T03:31:23.742Z,99.90
2023-03-03T03:33:50.567Z,99.90
2023-03-03T03:36:17.671Z,99.90
2023-03-03T03:38:45.274Z,99.90
2023-03-03T03:41:12.489Z,99.90
2023-03-03T03:43:40.324Z,99.90
2023-03-03T03:46:07.463Z,99.90
2023-03-03T03:48:36.732Z,99.90
2023-03-03T03:51:03.724Z,99.90
2023-03-03T03:53:30.742Z,99.90
2023-03-03T03:55:57.729Z,99.90
2023-03-03T03:58:25.361Z,99.90
2023-03-03T04:00:52.703Z,99.90
2023-03-03T04:03:20.689Z,99.90
2023-03-03T04:05:47.556Z,99.90
2023-03-03T04:08:14.380Z,99.90
2023-03-03T04:10:42.236Z,99.90
2023-03-03T04:13:09.539Z,99.90
2023-03-03T04:15:36.361Z,99.90
2023-03-03T04:18:03.778Z,99.90
2023-03-03T04:20:30.740Z,99.90
2023-03-03T04:22:58.052Z,99.90
2023-03-03T04:25:25.241Z,99.90
2023-03-03T04:27:52.984Z,99.90
2023-03-03T04:30:20.092Z,99.90
2023-03-03T04:32:47.603Z,99.90
2023-03-03T04:35:14.888Z,99.90
2023-03-03T04:37:42.046Z,99.90
2023-03-03T04:40:09.459Z,99.90
2023-03-03T04:42:36.361Z,99.90
2023-03-03T04:45:03.777Z,99.90
2023-03-03T04:47:31.237Z,99.90
2023-03-03T04:49:58.508Z,99.90
2023-03-03T04:52:25.996Z,99.90
2023-03-03T04:54:55.512Z,99.90
2023-03-03T04:57:22.431Z,99.90
2023-03-03T04:59:49.321Z,99.90
2023-03-03T05:02:18.123Z,99.90
2023-03-03T05:04:45.392Z,99.90
2023-03-03T05:07:12.161Z,99.90
2023-03-03T05:09:39.354Z,99.90
2023-03-03T05:12:06.500Z,99.90
2023-03-03T05:14:34.319Z,99.90
2023-03-03T05:17:05.852Z,99.90
2023-03-03T05:22:22.158Z,99.90
2023-03-03T05:24:56.960Z,99.90
2023-03-03T05:27:24.906Z,99.90
2023-03-03T05:29:57.161Z,99.90
2023-03-03T05:32:27.794Z,99.90
2023-03-03T05:35:06.197Z,99.90
2023-03-03T05:37:52.931Z,99.90
2023-03-03T05:40:22.699Z,99.90
2023-03-03T05:42:50.079Z,99.90
2023-03-03T05:45:32.827Z,99.90
2023-03-03T05:48:19.988Z,99.90
2023-03-03T05:50:49.334Z,99.90
2023-03-03T05:53:16.218Z,99.90
2023-03-03T05:55:46.738Z,99.90
2023-03-03T06:01:06.001Z,99.90
2023-03-03T06:03:34.568Z,99.90
2023-03-03T06:06:02.023Z,99.90
2023-03-03T06:08:42.837Z,99.90
2023-03-03T06:11:14.609Z,99.90
2023-03-03T06:13:44.347Z,99.90
2023-03-03T06:16:14.318Z,99.90
2023-03-03T06:18:42.149Z,99.90
2023-03-03T06:21:10.077Z,99.90
2023-03-03T06:23:46.843Z,99.90
2023-03-03T06:29:10.032Z,99.90
2023-03-03T06:31:51.518Z,99.90
2023-03-03T06:34:30.666Z,99.90
2023-03-03T06:37:05.459Z,99.90
2023-03-03T06:39:40.188Z,99.90
2023-03-03T06:42:32.533Z,99.90
2023-03-03T06:44:59.734Z,99.90
2023-03-03T06:47:28.062Z,99.90
2023-03-03T06:49:58.085Z,99.90
2023-03-03T06:52:26.669Z,99.90
2023-03-03T06:55:00.680Z,99.90
2023-03-03T06:57:29.531Z,99.90
2023-03-03T06:59:59.904Z,99.90
2023-03-03T07:02:40.658Z,99.90
2023-03-03T07:05:17.937Z,99.90
2023-03-03T07:07:47.671Z,99.90
2023-03-03T07:10:31.134Z,99.90
2023-03-03T07:13:04.181Z,99.90
2023-03-03T07:15:36.239Z,99.90
2023-03-03T07:18:26.566Z,99.90
2023-03-03T07:20:58.034Z,99.90
2023-03-03T07:23:29.681Z,99.90
2023-03-03T07:25:57.384Z,99.90
2023-03-03T07:28:30.689Z,99.90
2023-03-03T07:30:58.086Z,99.90
2023-03-03T07:33:43.432Z,99.90
2023-03-03T07:36:29.163Z,99.80
2023-03-03T07:38:59.187Z,97.40
2023-03-03T07:41:28.944Z,95.60
2023-03-03T07:43:59.638Z,96.90
2023-03-03T07:46:31.573Z,95.90
2023-03-03T07:49:00.626Z,96.10
2023-03-03T07:51:42.170Z,94.90
2023-03-03T07:54:25.952Z,94.20
2023-03-03T07:56:55.519Z,93.30
2023-03-03T07:59:24.870Z,91.50
2023-03-03T08:01:57.886Z,90.30
2023-03-03T08:04:51.244Z,88.70
2023-03-03T08:07:19.172Z,89.20
2023-03-03T08:10:01.943Z,89.70
2023-03-03T08:12:34.729Z,90.10
2023-03-03T08:15:20.316Z,85.80
2023-03-03T08:17:50.990Z,85.70
2023-03-03T08:20:42.817Z,86.70
2023-03-03T08:23:09.639Z,88.90
2023-03-03T08:25:41.819Z,88.40
2023-03-03T08:28:09.852Z,86.40
2023-03-03T08:30:38.303Z,82.00
2023-03-03T08:33:05.427Z,87.80
2023-03-03T08:35:33.088Z,85.10
2023-03-03T08:38:00.493Z,86.90
2023-03-03T08:40:31.262Z,81.40
2023-03-03T08:43:01.547Z,83.40
2023-03-03T08:45:28.768Z,83.20
2023-03-03T08:47:56.044Z,83.50
2023-03-03T08:50:26.625Z,86.70
2023-03-03T08:52:55.261Z,85.40
2023-03-03T08:55:29.902Z,85.60
2023-03-03T08:57:59.818Z,84.30
2023-03-03T09:00:26.860Z,83.00
2023-03-03T09:02:57.767Z,83.90
2023-03-03T09:05:25.150Z,85.30
2023-03-03T09:07:53.320Z,81.80
2023-03-03T09:10:27.620Z,82.60
2023-03-03T09:13:00.907Z,77.70
2023-03-03T09:15:31.133Z,79.70
2023-03-03T09:18:16.363Z,78.20
2023-03-03T09:20:51.517Z,77.00
2023-03-03T09:23:37.149Z,79.50
2023-03-03T09:26:22.554Z,77.40
2023-03-03T09:28:50.113Z,79.20
2023-03-03T09:31:31.829Z,73.20
2023-03-03T09:34:02.083Z,79.10
2023-03-03T09:36:32.024Z,79.30
2023-03-03T09:38:59.437Z,74.50
2023-03-03T09:41:34.085Z,78.60
2023-03-03T09:44:22.128Z,77.30
2023-03-03T09:47:26.886Z,75.30
2023-03-03T09:50:03.583Z,77.40
2023-03-03T09:52:34.131Z,77.20
2023-03-03T09:55:13.149Z,76.10
2023-03-03T09:58:10.356Z,78.10
2023-03-03T10:00:54.167Z,75.30
2023-03-03T10:03:49.126Z,75.20
2023-03-03T10:06:40.671Z,75.10
2023-03-03T10:12:25.604Z,71.40
2023-03-03T10:15:03.519Z,75.30
2023-03-03T10:17:36.018Z,75.50
2023-03-03T10:20:47.617Z,74.40
2023-03-03T10:23:56.290Z,74.30
2023-03-03T10:26:44.811Z,73.20
2023-03-03T10:29:31.003Z,73.10
2023-03-03T10:31:59.535Z,72.40
2023-03-03T10:34:54.279Z,71.60
2023-03-03T10:37:33.125Z,70.30
2023-03-03T10:40:10.910Z,72.40
2023-03-03T10:42:47.550Z,69.40
2023-03-03T10:45:32.466Z,68.80
2023-03-03T10:48:21.387Z,70.90
2023-03-03T10:51:17.780Z,71.40
2023-03-03T10:54:07.041Z,71.50
2023-03-03T10:56:53.329Z,72.20
2023-03-03T10:59:57.760Z,72.50
2023-03-03T11:02:30.509Z,69.10
2023-03-03T11:05:07.684Z,69.90
2023-03-03T11:07:43.026Z,67.60
2023-03-03T11:10:22.683Z,70.80
2023-03-03T11:13:03.596Z,69.50
2023-03-03T11:15:53.346Z,69.80
2023-03-03T11:18:36.930Z,67.70
2023-03-03T11:21:14.904Z,69.00
2023-03-03T11:24:05.144Z,68.90
2023-03-03T11:26:53.616Z,67.80
2023-03-03T11:29:52.508Z,65.80
2023-03-03T11:32:28.788Z,69.00
2023-03-03T11:35:25.507Z,66.50
2023-03-03T11:38:11.864Z,67.10
2023-03-03T11:41:22.971Z,67.00
2023-03-03T11:43:54.232Z,63.90
2023-03-03T11:46:30.200Z,64.10
2023-03-03T11:49:18.360Z,66.10
2023-03-03T11:52:32.768Z,66.30
2023-03-03T11:55:18.991Z,66.70
2023-03-03T11:58:01.173Z,63.70
2023-03-03T12:00:44.707Z,64.70
2023-03-03T12:03:19.830Z,63.40
2023-03-03T12:06:10.893Z,64.30
2023-03-03T12:08:58.193Z,61.80
2023-03-03T12:11:40.082Z,65.70
2023-03-03T12:14:36.370Z,63.30
2023-03-03T12:17:29.174Z,64.30
2023-03-03T12:20:03.583Z,65.20
2023-03-03T12:23:05.890Z,66.40
2023-03-03T12:26:02.189Z,65.00
2023-03-03T12:28:40.957Z,64.80
2023-03-03T12:31:41.433Z,64.10
2023-03-03T12:34:18.277Z,64.50
2023-03-03T12:37:05.325Z,63.70
2023-03-03T12:40:09.687Z,65.20
2023-03-03T12:42:54.204Z,64.30
2023-03-03T12:45:33.339Z,64.50
2023-03-03T12:48:00.705Z,66.40
2023-03-03T12:50:48.741Z,66.10
2023-03-03T13:07:38.240Z,64.10
2023-03-03T13:37:03.120Z,65.70
2023-03-03T13:57:56.014Z,65.50
2023-03-03T14:00:57.955Z,64.80
2023-03-03T14:03:33.892Z,66.10
2023-03-03T14:06:03.747Z,66.20
2023-03-03T14:08:49.452Z,67.00
2023-03-03T14:11:58.165Z,66.70
2023-03-03T14:14:43.559Z,66.90
2023-03-03T14:17:25.955Z,67.10
2023-03-03T14:20:14.427Z,66.50
2023-03-03T14:22:51.403Z,67.20
2023-03-03T14:25:19.453Z,65.70
2023-03-03T14:27:51.918Z,65.80
2023-03-03T14:30:24.927Z,66.10
2023-03-03T14:33:02.292Z,66.60
2023-03-03T14:35:41.899Z,65.60
2023-03-03T14:38:09.700Z,65.20
2023-03-03T14:40:39.013Z,65.70
2023-03-03T14:43:19.294Z,66.10
2023-03-03T14:45:46.995Z,66.30
2023-03-03T14:48:25.574Z,67.30
2023-03-03T14:51:04.827Z,66.90
2023-03-03T14:53:36.025Z,66.90
2023-03-03T14:56:28.509Z,66.60
2023-03-03T14:59:16.091Z,67.30
2023-03-03T15:01:44.105Z,67.50
2023-03-03T15:04:26.412Z,66.30
2023-03-03T15:06:55.938Z,66.00
2023-03-03T15:09:34.942Z,65.40
2023-03-03T15:12:04.216Z,65.80
2023-03-03T15:14:46.073Z,65.00
2023-03-03T15:18:07.093Z,64.30
2023-03-03T15:20:39.501Z,65.40
2023-03-03T15:23:32.173Z,64.70
2023-03-03T15:26:06.927Z,65.60
2023-03-03T15:28:46.823Z,64.80
2023-03-03T15:31:37.116Z,63.50
2023-03-03T15:34:54.516Z,63.30
2023-03-03T15:37:53.938Z,62.60
2023-03-03T15:40:32.966Z,64.00
2023-03-03T15:43:27.883Z,62.20
2023-03-03T15:46:04.035Z,62.90
2023-03-03T15:48:43.684Z,62.30
2023-03-03T15:51:37.665Z,63.70
2023-03-03T15:54:20.354Z,63.60
2023-03-03T15:57:03.321Z,63.80
2023-03-03T16:00:24.013Z,62.40
2023-03-03T16:03:01.364Z,63.80
2023-03-03T16:05:40.359Z,63.30
2023-03-03T16:08:14.435Z,63.70
2023-03-03T16:10:56.284Z,64.30
2023-03-03T16:13:55.228Z,62.90
2023-03-03T16:16:31.390Z,62.10
2023-03-03T16:19:12.228Z,63.20
2023-03-03T16:22:12.994Z,63.60
2023-03-03T16:24:55.334Z,63.90
2023-03-03T16:27:44.190Z,63.80
2023-03-03T16:30:26.400Z,64.30
2023-03-03T16:33:18.920Z,63.60
2023-03-03T16:36:17.813Z,64.70
2023-03-03T16:38:52.421Z,64.00
2023-03-03T16:41:59.248Z,64.10
2023-03-03T16:45:07.656Z,64.70
2023-03-03T16:47:57.965Z,65.20
2023-03-03T16:50:37.696Z,64.90
2023-03-03T16:53:27.581Z,65.30
2023-03-03T16:56:36.176Z,65.30
2023-03-03T16:59:15.319Z,65.30
2023-03-03T17:01:55.946Z,65.30
2023-03-03T17:04:51.949Z,65.60
2023-03-03T17:07:21.859Z,65.60
2023-03-03T17:10:05.877Z,65.90
2023-03-03T17:12:49.914Z,65.60
2023-03-03T17:15:31.774Z,65.60
2023-03-03T17:18:30.272Z,65.10
2023-03-03T17:20:59.238Z,65.10
2023-03-03T17:23:45.596Z,65.60
2023-03-03T17:26:16.445Z,66.00
2023-03-03T17:29:09.193Z,65.40
2023-03-03T17:32:12.302Z,65.20
2023-03-03T17:35:15.210Z,65.80
2023-03-03T17:37:59.986Z,65.50
2023-03-03T17:40:46.296Z,66.30
2023-03-03T17:43:24.013Z,65.80
2023-03-03T17:45:52.863Z,66.10
2023-03-03T17:48:32.096Z,65.50
2023-03-03T17:51:14.108Z,65.90
2023-03-03T17:54:00.131Z,65.60
2023-03-03T17:56:35.278Z,65.70
2023-03-03T17:59:28.120Z,65.90
2023-03-03T18:02:11.314Z,65.90
2023-03-03T18:05:20.191Z,66.00
2023-03-03T18:08:23.418Z,66.20
2023-03-03T18:11:15.380Z,66.40
2023-03-03T18:13:44.986Z,66.30
2023-03-03T18:16:36.491Z,66.50
2023-03-03T18:19:17.353Z,66.50
2023-03-03T18:22:04.352Z,67.00
2023-03-03T18:24:57.259Z,66.40
2023-03-03T18:27:25.665Z,66.60
2023-03-03T18:30:26.292Z,66.20
2023-03-03T18:32:56.270Z,65.80
2023-03-03T18:35:49.560Z,66.30
2023-03-03T18:38:16.682Z,67.00
2023-03-03T18:41:03.250Z,67.00
2023-03-03T18:43:47.854Z,67.60
2023-03-03T18:46:24.459Z,67.60
2023-03-03T18:49:06.613Z,67.90
2023-03-03T18:51:45.181Z,67.80
2023-03-03T18:54:18.580Z,68.50
2023-03-03T18:56:49.727Z,68.10
2023-03-03T18:59:40.726Z,68.50
2023-03-03T19:02:35.880Z,68.70
2023-03-03T19:05:05.782Z,68.90
2023-03-03T19:07:52.048Z,69.10
2023-03-03T19:10:24.410Z,69.20
2023-03-03T19:12:53.918Z,69.60
2023-03-03T19:15:29.869Z,69.80
2023-03-03T19:18:18.569Z,69.80
2023-03-03T19:21:12.269Z,70.10
2023-03-03T19:24:03.813Z,70.20
2023-03-03T19:26:44.710Z,70.70
2023-03-03T19:29:48.917Z,70.80
2023-03-03T19:32:31.194Z,71.00
2023-03-03T19:35:39.882Z,71.50
2023-03-03T19:38:32.497Z,71.70
2023-03-03T19:41:10.118Z,72.10
2023-03-03T19:43:52.670Z,72.20
2023-03-03T19:47:04.023Z,72.40
2023-03-03T19:49:40.064Z,72.70
2023-03-03T19:52:42.145Z,73.10
2023-03-03T19:55:41.828Z,73.20
2023-03-03T22:21:15.320Z,84.00
2023-03-03T22:23:47.875Z,83.10
2023-03-03T22:26:19.034Z,83.30
2023-03-03T22:28:45.847Z,83.40
2023-03-03T22:31:14.678Z,84.60
2023-03-03T22:33:45.484Z,84.10
2023-03-03T22:36:19.080Z,84.80
2023-03-03T22:38:46.974Z,85.20
2023-03-03T22:41:15.950Z,85.90
2023-03-03T22:43:43.255Z,86.80
2023-03-03T22:46:14.814Z,85.90
2023-03-03T22:48:45.303Z,85.90
2023-03-03T22:51:20.346Z,85.80
2023-03-03T22:53:49.351Z,86.60
2023-03-03T22:56:19.135Z,86.50
2023-03-03T22:58:47.493Z,87.60
2023-03-03T23:01:19.759Z,87.40
2023-03-03T23:03:46.730Z,87.10
2023-03-03T23:06:13.895Z,87.60
2023-03-03T23:08:43.340Z,88.10
2023-03-03T23:11:10.175Z,89.70
2023-03-03T23:13:40.652Z,88.80
2023-03-03T23:16:10.042Z,89.00
2023-03-03T23:18:41.035Z,89.40
2023-03-03T23:21:09.649Z,89.60
2023-03-03T23:23:41.913Z,90.20
2023-03-03T23:26:08.746Z,90.10
2023-03-03T23:28:38.387Z,90.50
2023-03-03T23:31:07.973Z,91.30
2023-03-03T23:33:36.446Z,91.10
2023-03-03T23:36:04.082Z,91.90
2023-03-03T23:38:30.827Z,92.00
2023-03-03T23:40:57.605Z,92.30
2023-03-03T23:43:24.625Z,92.10
2023-03-03T23:45:52.665Z,92.60
2023-03-03T23:48:20.814Z,93.30
2023-03-03T23:50:48.911Z,93.80
2023-03-03T23:53:17.345Z,94.70
2023-03-03T23:55:46.404Z,95.80
2023-03-03T23:58:13.480Z,94.40
